Time;durP1;ratioP1;P1;durP2;ratioP2;P2;SDS_P1;SDS_P2;PMS_P1;PMS_P2;Temp;Humidity;BMP_temperature;BMP_pressure;BME280_temperature;BME280_humidity;BME280_pressure;Samples;Min_cycle;Max_cycle;Signal;HPM_P1;HPM_P2
2022/03/04 00:00:54;;;;;;;;;;;;;;;;;;5069965;27;87197;-56
2022/03/04 00:03:20;;;;;;;;;;;;;;;;;;5069577;27;87639;-57
2022/03/04 00:05:45;;;;;;;;;;;;;;;;;;5069140;27;88373;-56
2022/03/04 00:08:11;;;;;;;;;;;;;;;;;;5069867;27;86134;-56
2022/03/04 00:10:37;;;;;;;;;;;;;;;;;;5069576;27;86861;-58
2022/03/04 00:13:03;;;;;;;;;;;;;;;;;;5071901;27;87619;-59
2022/03/04 00:15:29;;;;;;;;;;;;;;;;;;5070595;27;87883;-56
2022/03/04 00:17:55;;;;;;;;;;;;;;;;;;5069208;27;88639;-56
2022/03/04 00:20:21;;;;;;;;;;;;;;;;;;5069473;27;86913;-55
2022/03/04 00:22:47;;;;;;;;;;;;;;;;;;5069501;27;86876;-55
2022/03/04 00:25:13;;;;;;;;;;;;;;;;;;5068810;27;88700;-56
2022/03/04 00:27:38;;;;;;;;;;;;;;;;;;5069260;27;86837;-55
2022/03/04 00:30:04;;;;;;;;;;;;;;;;;;5069435;27;86807;-57
2022/03/04 00:32:30;;;;;;;;;;;;;;;;;;5069556;27;86695;-56
2022/03/04 00:34:56;;;;;;;;;;;;;;;;;;5071819;27;86931;-55
2022/03/04 00:37:22;;;;;;;;;;;;;;;;;;5068907;27;86925;-55
2022/03/04 00:39:48;;;;;;;;;;;;;;;;;;5068494;27;87822;-55
2022/03/04 00:42:14;;;;;;;;;;;;;;;;;;5068810;27;88434;-57
2022/03/04 00:44:40;;;;;;;;;;;;;;;;;;5068779;27;87426;-56
2022/03/04 00:47:06;;;;;;;;;;;;;;;;;;5068878;27;87118;-55
2022/03/04 00:49:32;;;;;;;;;;;;;;;;;;5068469;27;86840;-58
2022/03/04 00:51:58;;;;;;;;;;;;;;;;;;5068650;27;87586;-57
2022/03/04 00:54:24;;;;;;;;;;;;;;;;;;5068917;27;86794;-57
2022/03/04 00:56:49;;;;;;;;;;;;;;;;;;5071879;27;86205;-58
2022/03/04 00:59:15;;;;;;;;;;;;;;;;;;5069068;27;86821;-55
2022/03/04 01:01:41;;;;;;;;;;;;;;;;;;5068525;27;87510;-57
2022/03/04 01:04:07;;;;;;;;;;;;;;;;;;5067446;27;88596;-57
2022/03/04 01:06:34;;;;;;;;;;;;;;;;;;5068577;27;86860;-56
2022/03/04 01:09:00;;;;;;;;;;;;;;;;;;5067695;27;87306;-56
2022/03/04 01:11:26;;;;;;;;;;;;;;;;;;5068285;27;87605;-57
2022/03/04 01:13:52;;;;;;;;;;;;;;;;;;5068444;27;86821;-56
2022/03/04 01:16:17;;;;;;;;;;;;;;;;;;5068726;27;86805;-55
2022/03/04 01:18:43;;;;;;;;;;;;;;;;;;5070867;27;88325;-57
2022/03/04 01:21:09;;;;;;;;;;;;;;;;;;5068845;27;86584;-59
2022/03/04 01:23:35;;;;;;;;;;;;;;;;;;5068121;27;87459;-57
2022/03/04 01:26:01;;;;;;;;;;;;;;;;;;5068436;27;86949;-58
2022/03/04 01:28:27;;;;;;;;;;;;;;;;;;5067719;27;87737;-58
2022/03/04 01:30:53;;;;;;;;;;;;;;;;;;5068003;27;88761;-58
2022/03/04 01:33:19;;;;;;;;;;;;;;;;;;5068065;27;86802;-55
2022/03/04 01:35:45;;;;;;;;;;;;;;;;;;5069626;27;87092;-55
2022/03/04 01:38:11;;;;;;;;;;;;;;;;;;5068759;27;88654;-58
2022/03/04 01:40:37;;;;;;;;;;;;;;;;;;5071101;27;86857;-55
2022/03/04 01:43:03;;;;;;;;;;;;;;;;;;5067728;27;88542;-57
2022/03/04 01:45:28;;;;;;;;;;;;;;;;;;5068675;27;86112;-56
2022/03/04 01:47:54;;;;;;;;;;;;;;;;;;5067902;27;86806;-57
2022/03/04 01:50:20;;;;;;;;;;;;;;;;;;5067124;27;87503;-55
2022/03/04 01:52:46;;;;;;;;;;;;;;;;;;5067149;27;87815;-55
2022/03/04 01:55:12;;;;;;;;;;;;;;;;;;5067924;27;87289;-58
2022/03/04 01:57:38;;;;;;;;;;;;;;;;;;5067307;27;88468;-55
2022/03/04 02:00:04;;;;;;;;;;;;;;;;;;5067654;27;86849;-55
2022/03/04 02:02:30;;;;;;;;;;;;;;;;;;5070564;27;86865;-57
2022/03/04 02:04:56;;;;;;;;;;;;;;;;;;5067510;27;86863;-59
2022/03/04 02:07:22;;;;;;;;;;;;;;;;;;5067855;27;86940;-59
2022/03/04 02:09:48;;;;;;;;;;;;;;;;;;5067591;27;87841;-55
2022/03/04 02:12:13;;;;;;;;;;;;;;;;;;5067798;27;86935;-55
2022/03/04 02:14:39;;;;;;;;;;;;;;;;;;5067765;27;86834;-57
2022/03/04 02:17:05;;;;;;;;;;;;;;;;;;5066487;27;90331;-57
2022/03/04 02:19:31;;;;;;;;;;;;;;;;;;5067420;27;86923;-58
2022/03/04 02:21:57;;;;;;;;;;;;;;;;;;5069836;27;86940;-55
2022/03/04 02:24:23;;;;;;;;;;;;;;;;;;5067548;27;87097;-55
2022/03/04 02:26:49;;;;;;;;;;;;;;;;;;5067205;27;87472;-57
2022/03/04 02:29:15;;;;;;;;;;;;;;;;;;5066912;27;88539;-60
2022/03/04 02:31:41;;;;;;;;;;;;;;;;;;5067289;27;87410;-58
2022/03/04 02:34:07;;;;;;;;;;;;;;;;;;5067990;27;86122;-59
2022/03/04 02:36:33;;;;;;;;;;;;;;;;;;5066639;27;88401;-59
2022/03/04 02:38:59;;;;;;;;;;;;;;;;;;5067256;27;86841;-56
2022/03/04 02:41:25;;;;;;;;;;;;;;;;;;5066379;27;87776;-57
2022/03/04 02:43:51;;;;;;;;;;;;;;;;;;5069536;27;88544;-58
2022/03/04 02:46:17;;;;;;;;;;;;;;;;;;5067016;27;87504;-58
2022/03/04 02:48:43;;;;;;;;;;;;;;;;;;5066383;27;88405;-57
2022/03/04 02:51:08;;;;;;;;;;;;;;;;;;5066629;27;86945;-57
2022/03/04 02:53:34;;;;;;;;;;;;;;;;;;5067195;27;86826;-55
2022/03/04 02:56:00;;;;;;;;;;;;;;;;;;5066475;27;88146;-55
2022/03/04 02:58:26;;;;;;;;;;;;;;;;;;5069536;27;86183;-55
2022/03/04 03:00:52;;;;;;;;;;;;;;;;;;5067083;27;86838;-57
2022/03/04 03:03:18;;;;;;;;;;;;;;;;;;5066272;27;88498;-58
2022/03/04 03:05:44;;;;;;;;;;;;;;;;;;5069574;27;88027;-56
2022/03/04 03:08:10;;;;;;;;;;;;;;;;;;5066457;27;87473;-57
2022/03/04 03:10:36;;;;;;;;;;;;;;;;;;5066522;27;86876;-57
2022/03/04 03:13:02;;;;;;;;;;;;;;;;;;5067011;27;86865;-54
2022/03/04 03:15:28;;;;;;;;;;;;;;;;;;5066063;27;87591;-57
2022/03/04 03:17:54;;;;;;;;;;;;;;;;;;5066945;27;87100;-56
2022/03/04 03:20:20;;;;;;;;;;;;;;;;;;5066694;27;86877;-56
2022/03/04 03:22:46;;;;;;;;;;;;;;;;;;5066512;27;86978;-57
2022/03/04 03:25:12;;;;;;;;;;;;;;;;;;5066314;27;86739;-57
2022/03/04 03:27:38;;;;;;;;;;;;;;;;;;5068951;27;87473;-56
2022/03/04 03:30:03;;;;;;;;;;;;;;;;;;5065950;27;87769;-55
2022/03/04 03:32:29;;;;;;;;;;;;;;;;;;5068215;27;87300;-54
2022/03/04 03:34:55;;;;;;;;;;;;;;;;;;5069587;27;88539;-56
2022/03/04 03:37:21;;;;;;;;;;;;;;;;;;5070026;27;86894;-56
2022/03/04 03:39:47;;;;;;;;;;;;;;;;;;5070041;27;87612;-56
2022/03/04 03:42:13;;;;;;;;;;;;;;;;;;5069512;27;88466;-54
2022/03/04 03:44:39;;;;;;;;;;;;;;;;;;5070021;27;86868;-57
2022/03/04 03:47:05;;;;;;;;;;;;;;;;;;5070204;27;87505;-54
2022/03/04 03:49:31;;;;;;;;;;;;;;;;;;5072190;27;87786;-54
2022/03/04 03:51:57;;;;;;;;;;;;;;;;;;5070051;27;87586;-54
2022/03/04 03:54:23;;;;;;;;;;;;;;;;;;5068683;27;89322;-54
2022/03/04 03:56:49;;;;;;;;;;;;;;;;;;5069860;27;86889;-54
2022/03/04 03:59:15;;;;;;;;;;;;;;;;;;5069849;27;86821;-56
2022/03/04 04:01:41;;;;;;;;;;;;;;;;;;5069132;27;87606;-56
2022/03/04 04:04:13;;;;;;;;;;;;;;;;;;5069851;27;86831;-55
2022/03/04 04:06:39;;;;;;;;;;;;;;;;;;5069562;27;86946;-54
2022/03/04 04:09:05;;;;;;;;;;;;;;;;;;5069351;27;87521;-55
2022/03/04 04:11:35;;;;;;;;;;;;;;;;;;5072723;27;86656;-54
2022/03/04 04:14:01;;;;;;;;;;;;;;;;;;5069028;27;88053;-55
2022/03/04 04:16:26;;;;;;;;;;;;;;;;;;5069458;27;86891;-55
2022/03/04 04:18:52;;;;;;;;;;;;;;;;;;5070837;27;87803;-53
2022/03/04 04:21:18;;;;;;;;;;;;;;;;;;5069531;27;86868;-55
2022/03/04 04:23:44;;;;;;;;;;;;;;;;;;5069533;27;86952;-55
2022/03/04 04:26:10;;;;;;;;;;;;;;;;;;5069235;27;87405;-56
2022/03/04 04:28:36;;;;;;;;;;;;;;;;;;5068902;27;87558;-56
2022/03/04 04:31:02;;;;;;;;;;;;;;;;;;5072364;27;86876;-54
2022/03/04 04:33:28;;;;;;;;;;;;;;;;;;5068608;27;87605;-57
2022/03/04 04:35:54;;;;;;;;;;;;;;;;;;5069317;27;86013;-54
2022/03/04 04:38:20;;;;;;;;;;;;;;;;;;5068945;27;86856;-54
2022/03/04 04:40:46;;;;;;;;;;;;;;;;;;5068444;27;87636;-57
2022/03/04 04:43:12;;;;;;;;;;;;;;;;;;5068282;27;87802;-57
2022/03/04 04:45:38;;;;;;;;;;;;;;;;;;5069225;27;87442;-57
2022/03/04 04:48:04;;;;;;;;;;;;;;;;;;5068767;27;86802;-54
2022/03/04 04:50:30;;;;;;;;;;;;;;;;;;5068449;27;87057;-55
2022/03/04 04:52:56;;;;;;;;;;;;;;;;;;5071441;27;87315;-54
2022/03/04 04:55:22;;;;;;;;;;;;;;;;;;5068976;27;86851;-55
2022/03/04 04:57:48;;;;;;;;;;;;;;;;;;5068765;27;87355;-55
2022/03/04 05:00:14;;;;;;;;;;;;;;;;;;5068810;27;86835;-53
2022/03/04 05:02:39;;;;;;;;;;;;;;;;;;5068446;27;86870;-54
2022/03/04 05:05:05;;;;;;;;;;;;;;;;;;5068521;27;87308;-57
2022/03/04 05:07:31;;;;;;;;;;;;;;;;;;5067324;27;89179;-55
2022/03/04 05:09:57;;;;;;;;;;;;;;;;;;5068459;27;86887;-54
2022/03/04 05:12:23;;;;;;;;;;;;;;;;;;5068613;27;87387;-54
2022/03/04 05:14:49;;;;;;;;;;;;;;;;;;5071231;27;86909;-55
2022/03/04 05:17:15;;;;;;;;;;;;;;;;;;5068499;27;87481;-55
2022/03/04 05:19:41;;;;;;;;;;;;;;;;;;5067881;27;87582;-54
2022/03/04 05:22:07;;;;;;;;;;;;;;;;;;5068332;27;86847;-56
2022/03/04 05:24:33;;;;;;;;;;;;;;;;;;5068624;27;87798;-54
2022/03/04 05:26:59;;;;;;;;;;;;;;;;;;5067779;27;88429;-56
2022/03/04 05:29:25;;;;;;;;;;;;;;;;;;5068182;27;86964;-53
2022/03/04 05:31:51;;;;;;;;;;;;;;;;;;5067507;27;87830;-56
2022/03/04 05:34:17;;;;;;;;;;;;;;;;;;5067830;27;87628;-54
2022/03/04 05:36:43;;;;;;;;;;;;;;;;;;5070965;27;86925;-55
2022/03/04 05:39:09;;;;;;;;;;;;;;;;;;5067653;27;87604;-57
2022/03/04 05:41:35;;;;;;;;;;;;;;;;;;5069848;27;86884;-59
2022/03/04 05:44:01;;;;;;;;;;;;;;;;;;5067875;27;87466;-57
2022/03/04 05:46:27;;;;;;;;;;;;;;;;;;5067419;27;88754;-57
2022/03/04 05:48:53;;;;;;;;;;;;;;;;;;5068197;27;86010;-56
2022/03/04 05:51:19;;;;;;;;;;;;;;;;;;5067618;27;86804;-53
2022/03/04 05:53:45;;;;;;;;;;;;;;;;;;5067289;27;88629;-54
2022/03/04 05:56:10;;;;;;;;;;;;;;;;;;5066343;27;87788;-54
2022/03/04 05:58:36;;;;;;;;;;;;;;;;;;5070672;27;86816;-55
2022/03/04 06:01:02;;;;;;;;;;;;;;;;;;5067716;27;86795;-54
2022/03/04 06:03:28;;;;;;;;;;;;;;;;;;5067607;27;87560;-56
2022/03/04 06:05:54;;;;;;;;;;;;;;;;;;5067432;27;87570;-57
2022/03/04 06:08:20;;;;;;;;;;;;;;;;;;5068089;27;87103;-54
2022/03/04 06:10:46;;;;;;;;;;;;;;;;;;5067563;27;87509;-54
2022/03/04 06:13:12;;;;;;;;;;;;;;;;;;5067906;27;86523;-54
2022/03/04 06:15:38;;;;;;;;;;;;;;;;;;5067660;27;86819;-55
2022/03/04 06:18:04;;;;;;;;;;;;;;;;;;5070085;27;86818;-54
2022/03/04 06:20:29;;;;;;;;;;;;;;;;;;5066607;27;87766;-56
2022/03/04 06:22:55;;;;;;;;;;;;;;;;;;5067586;27;86895;-54
2022/03/04 06:25:21;;;;;;;;;;;;;;;;;;5067210;27;87409;-53
2022/03/04 06:27:47;;;;;;;;;;;;;;;;;;5067177;27;86945;-53
2022/03/04 06:30:13;;;;;;;;;;;;;;;;;;5067795;27;87093;-54
2022/03/04 06:32:39;;;;;;;;;;;;;;;;;;5066919;27;87327;-53
2022/03/04 06:35:05;;;;;;;;;;;;;;;;;;5067050;27;86820;-54
2022/03/04 06:37:31;;;;;;;;;;;;;;;;;;5067787;27;86356;-54
2022/03/04 06:39:57;;;;;;;;;;;;;;;;;;5069901;27;87434;-55
2022/03/04 06:42:23;;;;;;;;;;;;;;;;;;5067047;27;86854;-53
2022/03/04 06:44:49;;;;;;;;;;;;;;;;;;5066051;27;87748;-54
2022/03/04 06:47:14;;;;;;;;;;;;;;;;;;5066806;27;86823;-53
2022/03/04 06:49:40;;;;;;;;;;;;;;;;;;5066730;27;87019;-56
2022/03/04 06:52:06;;;;;;;;;;;;;;;;;;5066478;27;87598;-53
2022/03/04 06:54:33;;;;;;;;;;;;;;;;;;5067345;27;87212;-54
2022/03/04 06:56:59;;;;;;;;;;;;;;;;;;5066603;27;86833;-55
2022/03/04 06:59:25;;;;;;;;;;;;;;;;;;5066354;27;88604;-54
2022/03/04 07:01:51;;;;;;;;;;;;;;;;;;5070090;27;86120;-53
2022/03/04 07:04:17;;;;;;;;;;;;;;;;;;5068426;27;87387;-53
2022/03/04 07:06:42;;;;;;;;;;;;;;;;;;5065793;27;86861;-53
2022/03/04 07:09:08;;;;;;;;;;;;;;;;;;5066097;27;87805;-53
2022/03/04 07:11:34;;;;;;;;;;;;;;;;;;5066155;27;88446;-54
2022/03/04 07:14:00;;;;;;;;;;;;;;;;;;5066537;27;86749;-53
2022/03/04 07:16:26;;;;;;;;;;;;;;;;;;5066459;27;87492;-53
2022/03/04 07:18:52;;;;;;;;;;;;;;;;;;5066292;27;87988;-53
2022/03/04 07:21:18;;;;;;;;;;;;;;;;;;5066511;27;87264;-54
2022/03/04 07:23:44;;;;;;;;;;;;;;;;;;5069393;27;86934;-53
2022/03/04 07:26:12;;;;;;;;;;;;;;;;;;5066916;27;86108;-53
2022/03/04 07:28:38;;;;;;;;;;;;;;;;;;5066397;27;86861;-54
2022/03/04 07:31:03;;;;;;;;;;;;;;;;;;5065953;27;87458;-53
2022/03/04 07:33:29;;;;;;;;;;;;;;;;;;5065677;27;87775;-53
2022/03/04 07:35:55;;;;;;;;;;;;;;;;;;5066381;27;88453;-53
2022/03/04 07:38:21;;;;;;;;;;;;;;;;;;5065772;27;88468;-54
2022/03/04 07:40:47;;;;;;;;;;;;;;;;;;5066446;27;86752;-53
2022/03/04 07:43:13;;;;;;;;;;;;;;;;;;5066450;27;86815;-54
2022/03/04 07:45:39;;;;;;;;;;;;;;;;;;5068905;27;87577;-53
2022/03/04 07:48:05;;;;;;;;;;;;;;;;;;5066437;27;86880;-53
2022/03/04 07:50:31;;;;;;;;;;;;;;;;;;5065717;27;87645;-53
2022/03/04 07:52:56;;;;;;;;;;;;;;;;;;5066270;27;86819;-53
2022/03/04 07:55:26;;;;;;;;;;;;;;;;;;5066046;27;87495;-53
2022/03/04 07:57:52;;;;;;;;;;;;;;;;;;5064955;27;89541;-55
2022/03/04 08:00:18;;;;;;;;;;;;;;;;;;5065930;27;86850;-53
2022/03/04 08:02:44;;;;;;;;;;;;;;;;;;5065932;27;87578;-55
2022/03/04 08:05:10;;;;;;;;;;;;;;;;;;5065720;27;88389;-53
2022/03/04 08:07:36;;;;;;;;;;;;;;;;;;5068896;27;86896;-53
2022/03/04 08:10:02;;;;;;;;;;;;;;;;;;5065486;27;87597;-53
2022/03/04 08:12:29;;;;;;;;;;;;;;;;;;5065909;27;87633;-54
2022/03/04 08:14:55;;;;;;;;;;;;;;;;;;5066291;27;87601;-55
2022/03/04 08:17:20;;;;;;;;;;;;;;;;;;5065562;27;86945;-54
2022/03/04 08:19:46;;;;;;;;;;;;;;;;;;5069561;27;87128;-53
2022/03/04 08:22:12;;;;;;;;;;;;;;;;;;5068735;27;87809;-53
2022/03/04 08:24:38;;;;;;;;;;;;;;;;;;5069170;27;88707;-54
2022/03/04 08:27:04;;;;;;;;;;;;;;;;;;5074406;27;86858;-53
2022/03/04 08:29:30;;;;;;;;;;;;;;;;;;5068892;27;87450;-54
2022/03/04 08:31:56;;;;;;;;;;;;;;;;;;5069099;27;86922;-55
2022/03/04 08:34:22;;;;;;;;;;;;;;;;;;5069084;27;87477;-53
2022/03/04 08:36:49;;;;;;;;;;;;;;;;;;5068544;27;87632;-55
2022/03/04 08:39:15;;;;;;;;;;;;;;;;;;5069645;27;86404;-56
2022/03/04 08:41:42;;;;;;;;;;;;;;;;;;5068951;27;86866;-54
2022/03/04 08:44:08;;;;;;;;;;;;;;;;;;5068572;27;88456;-53
2022/03/04 08:46:35;;;;;;;;;;;;;;;;;;5068212;27;87751;-56
2022/03/04 08:49:01;;;;;;;;;;;;;;;;;;5071620;27;87677;-53
2022/03/04 08:51:27;;;;;;;;;;;;;;;;;;5068417;27;86851;-53
2022/03/04 08:53:53;;;;;;;;;;;;;;;;;;5069073;27;86848;-53
2022/03/04 08:56:19;;;;;;;;;;;;;;;;;;5068230;27;87515;-53
2022/03/04 08:58:45;;;;;;;;;;;;;;;;;;5068601;27;86911;-55
2022/03/04 09:01:11;;;;;;;;;;;;;;;;;;5068599;27;86857;-54
2022/03/04 09:03:37;;;;;;;;;;;;;;;;;;5069070;27;86342;-54
2022/03/04 09:06:04;;;;;;;;;;;;;;;;;;5068427;27;86937;-53
2022/03/04 09:08:30;;;;;;;;;;;;;;;;;;5068520;27;86959;-53
2022/03/04 09:10:56;;;;;;;;;;;;;;;;;;5070414;27;89365;-54
2022/03/04 09:13:23;;;;;;;;;;;;;;;;;;5068528;27;87395;-53
2022/03/04 09:15:49;;;;;;;;;;;;;;;;;;5067948;27;88938;-53
2022/03/04 09:18:15;;;;;;;;;;;;;;;;;;5068484;27;86821;-54
2022/03/04 09:20:41;;;;;;;;;;;;;;;;;;5068452;27;87486;-55
2022/03/04 09:23:07;;;;;;;;;;;;;;;;;;5067793;27;88402;-54
2022/03/04 09:25:34;;;;;;;;;;;;;;;;;;5068483;27;86840;-53
2022/03/04 09:27:59;;;;;;;;;;;;;;;;;;5068715;27;86406;-54
2022/03/04 09:30:25;;;;;;;;;;;;;;;;;;5066783;27;88973;-54
2022/03/04 09:32:51;;;;;;;;;;;;;;;;;;5071265;27;87011;-56
2022/03/04 09:35:18;;;;;;;;;;;;;;;;;;5066968;27;89509;-54
2022/03/04 09:37:44;;;;;;;;;;;;;;;;;;5067996;27;86860;-57
2022/03/04 09:40:10;;;;;;;;;;;;;;;;;;5068300;27;87395;-54
2022/03/04 09:42:36;;;;;;;;;;;;;;;;;;5067706;27;88548;-53
2022/03/04 09:45:03;;;;;;;;;;;;;;;;;;5067945;27;86875;-55
2022/03/04 09:47:29;;;;;;;;;;;;;;;;;;5068806;27;87469;-53
2022/03/04 09:49:55;;;;;;;;;;;;;;;;;;5067792;27;87649;-54
2022/03/04 09:52:20;;;;;;;;;;;;;;;;;;5068244;27;86046;-53
2022/03/04 09:54:46;;;;;;;;;;;;;;;;;;5070797;27;87045;-54
2022/03/04 09:57:12;;;;;;;;;;;;;;;;;;5067710;27;86871;-53
2022/03/04 09:59:38;;;;;;;;;;;;;;;;;;5067449;27;87894;-54
2022/03/04 10:02:04;;;;;;;;;;;;;;;;;;5067486;27;87364;-53
2022/03/04 10:04:33;;;;;;;;;;;;;;;;;;5067894;27;86867;-54
2022/03/04 10:06:58;;;;;;;;;;;;;;;;;;5067619;27;86867;-54
2022/03/04 10:09:24;;;;;;;;;;;;;;;;;;5067201;27;88641;-54
2022/03/04 10:11:50;;;;;;;;;;;;;;;;;;5067708;27;87130;-54
2022/03/04 10:14:17;;;;;;;;;;;;;;;;;;5067628;27;87585;-54
2022/03/04 10:16:43;;;;;;;;;;;;;;;;;;5070401;27;86736;-54
2022/03/04 10:19:09;;;;;;;;;;;;;;;;;;5067527;27;86862;-54
2022/03/04 10:21:35;;;;;;;;;;;;;;;;;;5067146;27;87375;-55
2022/03/04 10:24:00;;;;;;;;;;;;;;;;;;5066744;27;87777;-56
2022/03/04 10:26:26;;;;;;;;;;;;;;;;;;5067733;27;87091;-55
2022/03/04 10:28:52;;;;;;;;;;;;;;;;;;5066907;27;88514;-54
2022/03/04 10:31:18;;;;;;;;;;;;;;;;;;5067360;27;86913;-55
2022/03/04 10:33:44;;;;;;;;;;;;;;;;;;5067157;27;87365;-54
2022/03/04 10:36:10;;;;;;;;;;;;;;;;;;5069520;27;87591;-54
2022/03/04 10:38:36;;;;;;;;;;;;;;;;;;5067203;27;86825;-54
2022/03/04 10:41:02;;;;;;;;;;;;;;;;;;5066935;27;87641;-54
2022/03/04 10:43:28;;;;;;;;;;;;;;;;;;5067291;27;86931;-56
2022/03/04 10:45:53;;;;;;;;;;;;;;;;;;5067253;27;86816;-55
2022/03/04 10:48:19;;;;;;;;;;;;;;;;;;5066101;27;89527;-54
2022/03/04 10:50:45;;;;;;;;;;;;;;;;;;5066575;27;87229;-54
2022/03/04 10:53:11;;;;;;;;;;;;;;;;;;5066883;27;87520;-56
2022/03/04 10:55:38;;;;;;;;;;;;;;;;;;5066423;27;88446;-54
2022/03/04 10:58:04;;;;;;;;;;;;;;;;;;5069818;27;86911;-55
2022/03/04 11:00:30;;;;;;;;;;;;;;;;;;5066356;27;88526;-55
2022/03/04 11:02:56;;;;;;;;;;;;;;;;;;5066655;27;86922;-54
2022/03/04 11:05:22;;;;;;;;;;;;;;;;;;5067231;27;87390;-55
2022/03/04 11:07:48;;;;;;;;;;;;;;;;;;5067974;27;87886;-55
2022/03/04 11:10:14;;;;;;;;;;;;;;;;;;5067372;27;86837;-55
2022/03/04 11:12:42;;;;;;;;;;;;;;;;;;5066231;27;87741;-56
2022/03/04 11:15:08;;;;;;;;;;;;;;;;;;5066167;27;86857;-57
2022/03/04 11:17:34;;;;;;;;;;;;;;;;;;5066436;27;86833;-55
2022/03/04 11:20:00;;;;;;;;;;;;;;;;;;5069319;27;86834;-54
2022/03/04 11:22:26;;;;;;;;;;;;;;;;;;5066375;27;86854;-54
2022/03/04 11:24:53;;;;;;;;;;;;;;;;;;5066424;27;87461;-54
2022/03/04 11:27:18;;;;;;;;;;;;;;;;;;5066077;27;87634;-54
2022/03/04 11:29:45;;;;;;;;;;;;;;;;;;5066880;27;86170;-57
2022/03/04 11:32:11;;;;;;;;;;;;;;;;;;5066347;27;86777;-56
2022/03/04 11:34:37;;;;;;;;;;;;;;;;;;5066031;27;88224;-55
2022/03/04 11:37:03;;;;;;;;;;;;;;;;;;5065544;27;87818;-57
2022/03/04 11:39:29;;;;;;;;;;;;;;;;;;5066242;27;87378;-55
2022/03/04 11:41:55;;;;;;;;;;;;;;;;;;5068932;27;86829;-57
2022/03/04 11:44:22;;;;;;;;;;;;;;;;;;5066498;27;86856;-55
2022/03/04 11:46:48;;;;;;;;;;;;;;;;;;5065661;27;88455;-55
2022/03/04 11:49:14;;;;;;;;;;;;;;;;;;5065875;27;86900;-57
2022/03/04 11:51:40;;;;;;;;;;;;;;;;;;5066421;27;86834;-58
2022/03/04 11:54:06;;;;;;;;;;;;;;;;;;5069279;27;87090;-57
2022/03/04 11:56:31;;;;;;;;;;;;;;;;;;5069594;27;86855;-54
2022/03/04 11:58:57;;;;;;;;;;;;;;;;;;5069585;27;87522;-54
2022/03/04 12:01:23;;;;;;;;;;;;;;;;;;5068744;27;87773;-56
2022/03/04 12:03:49;;;;;;;;;;;;;;;;;;5072437;27;86979;-58
2022/03/04 12:06:15;;;;;;;;;;;;;;;;;;5069238;27;88420;-58
2022/03/04 12:08:41;;;;;;;;;;;;;;;;;;5069817;27;86861;-55
2022/03/04 12:11:07;;;;;;;;;;;;;;;;;;5069528;27;86825;-56
2022/03/04 12:13:33;;;;;;;;;;;;;;;;;;5069075;27;88574;-54
2022/03/04 12:15:59;;;;;;;;;;;;;;;;;;5069370;27;87233;-59
2022/03/04 12:18:25;;;;;;;;;;;;;;;;;;5070010;27;86675;-55
2022/03/04 12:20:54;;;;;;;;;;;;;;;;;;5069009;27;88458;-56
2022/03/04 12:23:20;;;;;;;;;;;;;;;;;;5069671;27;86857;-56
2022/03/04 12:25:45;;;;;;;;;;;;;;;;;;5071680;27;87700;-56
2022/03/04 12:28:11;;;;;;;;;;;;;;;;;;5071037;27;86871;-58
2022/03/04 12:30:37;;;;;;;;;;;;;;;;;;5069406;27;87014;-54
2022/03/04 12:33:03;;;;;;;;;;;;;;;;;;5068729;27;88631;-59
2022/03/04 12:35:29;;;;;;;;;;;;;;;;;;5069038;27;86890;-54
2022/03/04 12:37:55;;;;;;;;;;;;;;;;;;5069749;27;86833;-60
2022/03/04 12:40:22;;;;;;;;;;;;;;;;;;5069389;27;87524;-54
2022/03/04 12:42:48;;;;;;;;;;;;;;;;;;5069552;27;86112;-60
2022/03/04 12:45:14;;;;;;;;;;;;;;;;;;5071771;27;87081;-59
2022/03/04 12:47:40;;;;;;;;;;;;;;;;;;5068853;27;86826;-60
2022/03/04 12:50:06;;;;;;;;;;;;;;;;;;5068010;27;87753;-58
2022/03/04 12:52:31;;;;;;;;;;;;;;;;;;5068428;27;87575;-56
2022/03/04 12:54:57;;;;;;;;;;;;;;;;;;5068887;27;86712;-58
2022/03/04 12:57:27;;;;;;;;;;;;;;;;;;5068654;27;87578;-56
2022/03/04 12:59:53;;;;;;;;;;;;;;;;;;5068520;27;87606;-55
2022/03/04 13:02:19;;;;;;;;;;;;;;;;;;5068826;27;86859;-54
2022/03/04 13:04:44;;;;;;;;;;;;;;;;;;5067349;27;87409;-56
2022/03/04 13:07:10;;;;;;;;;;;;;;;;;;5071861;27;86624;-57
2022/03/04 13:09:36;;;;;;;;;;;;;;;;;;5068633;27;86822;-55
2022/03/04 13:12:03;;;;;;;;;;;;;;;;;;5068129;27;87817;-58
2022/03/04 13:14:32;;;;;;;;;;;;;;;;;;5067719;27;87746;-57
2022/03/04 13:16:58;;;;;;;;;;;;;;;;;;5068337;27;87507;-55
2022/03/04 13:19:24;;;;;;;;;;;;;;;;;;5068122;27;88721;-56
2022/03/04 13:21:50;;;;;;;;;;;;;;;;;;5068270;27;86866;-56
2022/03/04 13:24:16;;;;;;;;;;;;;;;;;;5068645;27;86808;-56
2022/03/04 13:26:41;;;;;;;;;;;;;;;;;;5067779;27;88314;-56
2022/03/04 13:29:07;;;;;;;;;;;;;;;;;;5071121;27;86903;-56
2022/03/04 13:31:33;;;;;;;;;;;;;;;;;;5068195;27;87924;-54
2022/03/04 13:33:59;;;;;;;;;;;;;;;;;;5068201;27;86773;-56
2022/03/04 13:36:25;;;;;;;;;;;;;;;;;;5068066;27;87645;-56
2022/03/04 13:38:51;;;;;;;;;;;;;;;;;;5066976;27;89365;-55
2022/03/04 13:41:17;;;;;;;;;;;;;;;;;;5068028;27;86964;-54
2022/03/04 13:43:43;;;;;;;;;;;;;;;;;;5068281;27;87124;-59
2022/03/04 13:46:09;;;;;;;;;;;;;;;;;;5069497;27;88467;-54
2022/03/04 13:48:35;;;;;;;;;;;;;;;;;;5067944;27;86882;-58
2022/03/04 13:51:01;;;;;;;;;;;;;;;;;;5070405;27;86855;-57
2022/03/04 13:53:27;;;;;;;;;;;;;;;;;;5067778;27;86879;-56
2022/03/04 13:55:54;;;;;;;;;;;;;;;;;;5068527;27;86243;-55
2022/03/04 13:58:20;;;;;;;;;;;;;;;;;;5067237;27;88597;-55
2022/03/04 14:00:46;;;;;;;;;;;;;;;;;;5067692;27;86902;-57
2022/03/04 14:03:12;;;;;;;;;;;;;;;;;;5067098;27;87785;-57
2022/03/04 14:05:38;;;;;;;;;;;;;;;;;;5067154;27;88590;-57
2022/03/04 14:08:04;;;;;;;;;;;;;;;;;;5067819;27;86840;-58
2022/03/04 14:10:31;;;;;;;;;;;;;;;;;;5067756;27;87653;-54
2022/03/04 14:12:56;;;;;;;;;;;;;;;;;;5070281;27;87404;-55
2022/03/04 14:15:22;;;;;;;;;;;;;;;;;;5067430;27;87128;-54
2022/03/04 14:17:48;;;;;;;;;;;;;;;;;;5066920;27;88787;-58
2022/03/04 14:20:14;;;;;;;;;;;;;;;;;;5067913;27;86200;-58
2022/03/04 14:22:40;;;;;;;;;;;;;;;;;;5067341;27;86802;-59
2022/03/04 14:25:06;;;;;;;;;;;;;;;;;;5067225;27;87769;-61
2022/03/04 14:27:32;;;;;;;;;;;;;;;;;;5066569;27;88065;-61
2022/03/04 14:29:58;;;;;;;;;;;;;;;;;;5067259;27;87530;-61
2022/03/04 14:32:24;;;;;;;;;;;;;;;;;;5066875;27;88612;-58
2022/03/04 14:34:49;;;;;;;;;;;;;;;;;;5070343;27;86840;-57
2022/03/04 14:37:15;;;;;;;;;;;;;;;;;;5066868;27;87443;-59
2022/03/04 14:39:41;;;;;;;;;;;;;;;;;;5067063;27;86865;-60
2022/03/04 14:42:08;;;;;;;;;;;;;;;;;;5066923;27;87402;-60
2022/03/04 14:44:34;;;;;;;;;;;;;;;;;;5067156;27;87071;-60
2022/03/04 14:47:00;;;;;;;;;;;;;;;;;;5067013;27;86858;-61
2022/03/04 14:49:26;;;;;;;;;;;;;;;;;;5066517;27;87233;-60
2022/03/04 14:51:52;;;;;;;;;;;;;;;;;;5065839;27;88571;-61
2022/03/04 14:54:20;;;;;;;;;;;;;;;;;;5069865;27;86878;-61
2022/03/04 14:56:46;;;;;;;;;;;;;;;;;;5066290;27;87576;-62
2022/03/04 14:59:12;;;;;;;;;;;;;;;;;;5066977;27;86869;-61
2022/03/04 15:01:38;;;;;;;;;;;;;;;;;;5067383;27;87406;-62
2022/03/04 15:04:04;;;;;;;;;;;;;;;;;;5067878;27;87560;-60
2022/03/04 15:06:29;;;;;;;;;;;;;;;;;;5066543;27;86776;-61
2022/03/04 15:08:55;;;;;;;;;;;;;;;;;;5067133;27;86622;-61
2022/03/04 15:11:21;;;;;;;;;;;;;;;;;;5066431;27;87569;-62
2022/03/04 15:13:47;;;;;;;;;;;;;;;;;;5066976;27;86965;-61
2022/03/04 15:16:13;;;;;;;;;;;;;;;;;;5068437;27;87837;-60
2022/03/04 15:18:39;;;;;;;;;;;;;;;;;;5066852;27;86913;-62
2022/03/04 15:21:05;;;;;;;;;;;;;;;;;;5066676;27;87367;-60
2022/03/04 15:23:31;;;;;;;;;;;;;;;;;;5066435;27;86953;-62
2022/03/04 15:25:57;;;;;;;;;;;;;;;;;;5066474;27;87182;-63
2022/03/04 15:28:27;;;;;;;;;;;;;;;;;;5065436;27;86841;-62
2022/03/04 15:30:53;;;;;;;;;;;;;;;;;;5065995;27;88563;-62
2022/03/04 15:33:19;;;;;;;;;;;;;;;;;;5067033;27;86040;-63
2022/03/04 15:35:44;;;;;;;;;;;;;;;;;;5066673;27;86853;-62
2022/03/04 15:38:10;;;;;;;;;;;;;;;;;;5069128;27;87565;-61
2022/03/04 15:40:36;;;;;;;;;;;;;;;;;;5065676;27;87745;-61
2022/03/04 15:43:02;;;;;;;;;;;;;;;;;;5065938;27;88948;-61
2022/03/04 15:45:28;;;;;;;;;;;;;;;;;;5066132;27;86886;-61
2022/03/04 15:47:54;;;;;;;;;;;;;;;;;;5066218;27;87112;-61
2022/03/04 15:50:20;;;;;;;;;;;;;;;;;;5065686;27;86901;-61
2022/03/04 15:52:46;;;;;;;;;;;;;;;;;;5066405;27;86839;-61
2022/03/04 15:55:12;;;;;;;;;;;;;;;;;;5066345;27;87487;-61
2022/03/04 15:57:38;;;;;;;;;;;;;;;;;;5066352;27;86890;-60
2022/03/04 16:00:04;;;;;;;;;;;;;;;;;;5069280;27;86868;-60
2022/03/04 16:02:30;;;;;;;;;;;;;;;;;;5065550;27;88430;-61
2022/03/04 16:04:56;;;;;;;;;;;;;;;;;;5065360;27;87869;-60
2022/03/04 16:07:23;;;;;;;;;;;;;;;;;;5065905;27;88533;-62
2022/03/04 16:09:49;;;;;;;;;;;;;;;;;;5065669;27;88647;-61
2022/03/04 16:12:15;;;;;;;;;;;;;;;;;;5066164;27;86889;-61
2022/03/04 16:14:42;;;;;;;;;;;;;;;;;;5065850;27;87436;-60
2022/03/04 16:17:08;;;;;;;;;;;;;;;;;;5065335;27;88453;-61
2022/03/04 16:19:34;;;;;;;;;;;;;;;;;;5067384;27;86878;-60
2022/03/04 16:22:00;;;;;;;;;;;;;;;;;;5069467;27;86244;-61
2022/03/04 16:24:26;;;;;;;;;;;;;;;;;;5065918;27;86961;-60
2022/03/04 16:26:52;;;;;;;;;;;;;;;;;;5065766;27;87736;-60
2022/03/04 16:29:18;;;;;;;;;;;;;;;;;;5064930;27;88381;-62
2022/03/04 16:31:44;;;;;;;;;;;;;;;;;;5065870;27;86808;-60
2022/03/04 16:34:10;;;;;;;;;;;;;;;;;;5065609;27;87596;-62
2022/03/04 16:36:36;;;;;;;;;;;;;;;;;;5065285;27;87420;-60